Time;durP1;ratioP1;P1;durP2;ratioP2;P2;SDS_P1;SDS_P2;PMS_P1;PMS_P2;Temp;Humidity;BMP_temperature;BMP_pressure;BME280_temperature;BME280_humidity;BME280_pressure;Samples;Min_cycle;Max_cycle;Signal;HPM_P1;HPM_P2
2023/12/27 00:00:25;;;;;;;;;;;;;;;;;;6306226;28;19916;-88
2023/12/27 00:03:25;;;;;;;;;;;;;;;;;;6259343;28;20365;-87
2023/12/27 00:06:25;;;;;;;;;;;;;;;;;;6276850;28;20377;-88
2023/12/27 00:09:25;;;;;;;;;;;;;;;;;;6290804;28;19913;-86
2023/12/27 00:12:25;;;;;;;;;;;;;;;;;;6263115;28;19913;-87
2023/12/27 00:15:26;;;;;;;;;;;;;;;;;;6277695;28;19928;-80
2023/12/27 00:18:26;;;;;;;;;;;;;;;;;;6264809;28;19919;-80
2023/12/27 00:21:26;;;;;;;;;;;;;;;;;;6274600;28;19917;-80
2023/12/27 00:24:26;;;;;;;;;;;;;;;;;;6289167;28;19921;-80
2023/12/27 00:27:26;;;;;;;;;;;;;;;;;;6278772;28;20007;-80
2023/12/27 00:30:26;;;;;;;;;;;;;;;;;;6287633;28;19959;-81
2023/12/27 00:33:26;;;;;;;;;;;;;;;;;;6281883;28;19952;-81
2023/12/27 00:36:29;;;;;;;;;;;;;;;;;;6257867;28;20396;-81
2023/12/27 00:39:29;;;;;;;;;;;;;;;;;;6281821;28;19917;-82
2023/12/27 00:42:29;;;;;;;;;;;;;;;;;;6267293;28;20055;-82
2023/12/27 00:45:29;;;;;;;;;;;;;;;;;;6258802;28;19917;-81
2023/12/27 00:48:29;;;;;;;;;;;;;;;;;;6247343;28;19913;-81
2023/12/27 00:51:30;;;;;;;;;;;;;;;;;;6258661;28;19913;-82
2023/12/27 00:54:30;;;;;;;;;;;;;;;;;;6250629;28;19923;-82
2023/12/27 00:57:30;;;;;;;;;;;;;;;;;;6267873;28;19924;-82
2023/12/27 01:00:30;;;;;;;;;;;;;;;;;;6247282;28;19917;-82
2023/12/27 01:03:30;;;;;;;;;;;;;;;;;;6273588;28;19925;-82
2023/12/27 01:06:30;;;;;;;;;;;;;;;;;;6282864;28;19967;-82
2023/12/27 01:09:30;;;;;;;;;;;;;;;;;;6285580;28;19974;-84
2023/12/27 01:12:30;;;;;;;;;;;;;;;;;;6293881;28;19916;-82
2023/12/27 01:15:31;;;;;;;;;;;;;;;;;;6290111;28;20004;-83
2023/12/27 01:18:31;;;;;;;;;;;;;;;;;;6288850;28;20008;-82
2023/12/27 01:21:31;;;;;;;;;;;;;;;;;;6281476;28;20356;-82
2023/12/27 01:24:31;;;;;;;;;;;;;;;;;;6284432;28;19963;-88
2023/12/27 01:27:31;;;;;;;;;;;;;;;;;;6276213;28;20005;-89
2023/12/27 01:30:32;;;;;;;;;;;;;;;;;;6274996;28;19917;-91
2023/12/27 01:33:32;;;;;;;;;;;;;;;;;;6294259;28;19916;-88
2023/12/27 01:36:32;;;;;;;;;;;;;;;;;;6277621;28;19973;-90
2023/12/27 01:39:32;;;;;;;;;;;;;;;;;;6277900;28;19919;-89
2023/12/27 01:42:33;;;;;;;;;;;;;;;;;;6274513;28;19967;-90
2023/12/27 01:45:34;;;;;;;;;;;;;;;;;;6280420;28;19923;-89
2023/12/27 01:48:34;;;;;;;;;;;;;;;;;;6289389;28;19912;-89
2023/12/27 01:51:34;;;;;;;;;;;;;;;;;;6288748;28;19912;-90
2023/12/27 01:54:34;;;;;;;;;;;;;;;;;;6277007;28;19921;-88
2023/12/27 01:57:34;;;;;;;;;;;;;;;;;;6284606;28;19920;-89
2023/12/27 02:00:34;;;;;;;;;;;;;;;;;;6268323;28;19917;-89
2023/12/27 02:03:34;;;;;;;;;;;;;;;;;;6281156;28;19920;-89
2023/12/27 02:06:35;;;;;;;;;;;;;;;;;;6291443;28;20003;-89
2023/12/27 02:09:35;;;;;;;;;;;;;;;;;;6276976;28;20026;-90
2023/12/27 02:12:35;;;;;;;;;;;;;;;;;;6291984;28;19956;-90
2023/12/27 02:15:35;;;;;;;;;;;;;;;;;;6279185;28;19979;-89
2023/12/27 02:18:36;;;;;;;;;;;;;;;;;;6285869;28;19959;-88
2023/12/27 02:21:36;;;;;;;;;;;;;;;;;;6285246;28;19979;-89
2023/12/27 02:24:36;;;;;;;;;;;;;;;;;;6292008;28;20001;-89
2023/12/27 02:27:37;;;;;;;;;;;;;;;;;;6277281;28;19913;-89
2023/12/27 02:30:38;;;;;;;;;;;;;;;;;;6275337;28;19912;-90
2023/12/27 02:33:38;;;;;;;;;;;;;;;;;;6282959;28;19918;-91
2023/12/27 02:36:38;;;;;;;;;;;;;;;;;;6270526;28;19916;-89
2023/12/27 02:39:38;;;;;;;;;;;;;;;;;;6293936;28;19956;-90
2023/12/27 02:42:38;;;;;;;;;;;;;;;;;;6295403;28;19955;-89
2023/12/27 02:45:38;;;;;;;;;;;;;;;;;;6283449;28;19954;-90
2023/12/27 02:48:39;;;;;;;;;;;;;;;;;;6290045;28;19940;-90
2023/12/27 02:51:39;;;;;;;;;;;;;;;;;;6276438;28;20027;-90
2023/12/27 02:54:39;;;;;;;;;;;;;;;;;;6282728;28;19952;-89
2023/12/27 02:57:39;;;;;;;;;;;;;;;;;;6296361;28;20005;-89
2023/12/27 03:00:39;;;;;;;;;;;;;;;;;;6263393;28;19917;-89
2023/12/27 03:03:39;;;;;;;;;;;;;;;;;;6294164;28;19925;-89
2023/12/27 03:06:39;;;;;;;;;;;;;;;;;;6295027;28;19959;-89
2023/12/27 03:09:40;;;;;;;;;;;;;;;;;;6294604;28;19920;-90
2023/12/27 03:12:40;;;;;;;;;;;;;;;;;;6297795;28;19960;-90
2023/12/27 03:15:40;;;;;;;;;;;;;;;;;;6290598;28;19923;-88
2023/12/27 03:18:40;;;;;;;;;;;;;;;;;;6295090;28;20183;-89
2023/12/27 03:21:40;;;;;;;;;;;;;;;;;;6293154;28;19958;-90
2023/12/27 03:24:40;;;;;;;;;;;;;;;;;;6280510;28;19967;-89
2023/12/27 03:27:40;;;;;;;;;;;;;;;;;;6278603;28;19966;-90
2023/12/27 03:30:41;;;;;;;;;;;;;;;;;;6292607;28;19916;-89
2023/12/27 03:33:41;;;;;;;;;;;;;;;;;;6300099;28;19936;-90
2023/12/27 03:36:41;;;;;;;;;;;;;;;;;;6300735;28;19920;-90
2023/12/27 03:39:46;;;;;;;;;;;;;;;;;;6289741;28;19913;-90
2023/12/27 03:42:46;;;;;;;;;;;;;;;;;;6296135;28;19954;-90
2023/12/27 03:45:46;;;;;;;;;;;;;;;;;;6278174;28;19920;-82
2023/12/27 03:48:46;;;;;;;;;;;;;;;;;;6293575;28;19916;-82
2023/12/27 03:51:46;;;;;;;;;;;;;;;;;;6307729;28;19916;-82
2023/12/27 03:54:46;;;;;;;;;;;;;;;;;;6297873;28;19927;-82
2023/12/27 03:57:47;;;;;;;;;;;;;;;;;;6298992;28;19921;-82
2023/12/27 04:00:47;;;;;;;;;;;;;;;;;;6285026;28;19999;-82
2023/12/27 04:03:47;;;;;;;;;;;;;;;;;;6293111;28;19927;-82
2023/12/27 04:06:47;;;;;;;;;;;;;;;;;;6291728;28;19985;-82
2023/12/27 04:09:47;;;;;;;;;;;;;;;;;;6285231;28;19938;-82
2023/12/27 04:12:48;;;;;;;;;;;;;;;;;;6282346;28;19912;-82
2023/12/27 04:15:48;;;;;;;;;;;;;;;;;;6291226;28;19920;-82
2023/12/27 04:18:48;;;;;;;;;;;;;;;;;;6292171;28;19912;-82
2023/12/27 04:21:48;;;;;;;;;;;;;;;;;;6287100;28;19920;-83
2023/12/27 04:24:48;;;;;;;;;;;;;;;;;;6273883;28;19998;-82
2023/12/27 04:27:48;;;;;;;;;;;;;;;;;;6293545;28;19916;-82
2023/12/27 04:30:49;;;;;;;;;;;;;;;;;;6278746;28;19913;-82
2023/12/27 04:33:49;;;;;;;;;;;;;;;;;;6287405;28;20188;-82
2023/12/27 04:36:49;;;;;;;;;;;;;;;;;;6283734;28;19917;-82
2023/12/27 04:39:49;;;;;;;;;;;;;;;;;;6291835;28;19916;-83
2023/12/27 04:42:49;;;;;;;;;;;;;;;;;;6293077;28;19921;-83
2023/12/27 04:45:49;;;;;;;;;;;;;;;;;;6292230;28;19920;-83
2023/12/27 04:48:49;;;;;;;;;;;;;;;;;;6297174;28;19961;-82
2023/12/27 04:51:50;;;;;;;;;;;;;;;;;;6290245;28;19912;-83
2023/12/27 04:54:50;;;;;;;;;;;;;;;;;;6280148;28;19916;-90
2023/12/27 04:57:50;;;;;;;;;;;;;;;;;;6276876;28;19966;-91
2023/12/27 05:00:50;;;;;;;;;;;;;;;;;;6272308;28;19925;-91
2023/12/27 05:03:50;;;;;;;;;;;;;;;;;;6272983;28;19968;-91
2023/12/27 05:06:50;;;;;;;;;;;;;;;;;;6277809;28;19963;-91
2023/12/27 05:09:50;;;;;;;;;;;;;;;;;;6275225;28;19944;-91
2023/12/27 05:12:53;;;;;;;;;;;;;;;;;;6289042;28;19916;-90
2023/12/27 05:15:53;;;;;;;;;;;;;;;;;;6275854;28;19912;-91
2023/12/27 05:18:53;;;;;;;;;;;;;;;;;;6281806;28;20381;-88
2023/12/27 05:21:54;;;;;;;;;;;;;;;;;;6292360;28;20365;-91
2023/12/27 05:24:54;;;;;;;;;;;;;;;;;;6265239;28;20004;-90
2023/12/27 05:27:54;;;;;;;;;;;;;;;;;;6275561;28;19912;-91
2023/12/27 05:30:54;;;;;;;;;;;;;;;;;;6292110;28;19913;-91
2023/12/27 05:33:57;;;;;;;;;;;;;;;;;;6279890;28;20473;-91
2023/12/27 05:36:57;;;;;;;;;;;;;;;;;;6273423;28;19958;-91
2023/12/27 05:39:57;;;;;;;;;;;;;;;;;;6284340;28;20011;-91
2023/12/27 05:42:57;;;;;;;;;;;;;;;;;;6298068;28;20011;-91
2023/12/27 05:45:58;;;;;;;;;;;;;;;;;;6292864;28;19916;-91
2023/12/27 05:48:58;;;;;;;;;;;;;;;;;;6293614;28;19927;-90
2023/12/27 05:51:58;;;;;;;;;;;;;;;;;;6292810;28;19959;-91
2023/12/27 05:54:58;;;;;;;;;;;;;;;;;;6288248;28;19913;-91
2023/12/27 05:57:58;;;;;;;;;;;;;;;;;;6288224;28;19919;-91
2023/12/27 06:00:58;;;;;;;;;;;;;;;;;;6275292;28;19921;-91
2023/12/27 06:03:58;;;;;;;;;;;;;;;;;;6281818;28;19922;-83
2023/12/27 06:06:59;;;;;;;;;;;;;;;;;;6265849;28;19959;-82
2023/12/27 06:09:59;;;;;;;;;;;;;;;;;;6274805;28;20323;-83
2023/12/27 06:12:59;;;;;;;;;;;;;;;;;;6270416;28;20238;-82
2023/12/27 06:15:59;;;;;;;;;;;;;;;;;;6279437;28;19912;-83
2023/12/27 06:18:59;;;;;;;;;;;;;;;;;;6291091;28;19920;-83
2023/12/27 06:21:59;;;;;;;;;;;;;;;;;;6290896;28;19912;-82
2023/12/27 06:24:59;;;;;;;;;;;;;;;;;;6282285;28;19920;-82
2023/12/27 06:28:00;;;;;;;;;;;;;;;;;;6295708;28;20281;-82
2023/12/27 06:31:00;;;;;;;;;;;;;;;;;;6296227;28;19919;-84
2023/12/27 06:34:00;;;;;;;;;;;;;;;;;;6296484;28;20011;-82
2023/12/27 06:37:00;;;;;;;;;;;;;;;;;;6285991;28;19917;-83
2023/12/27 06:40:00;;;;;;;;;;;;;;;;;;6292837;28;19920;-84
2023/12/27 06:43:01;;;;;;;;;;;;;;;;;;6296135;28;19932;-83
2023/12/27 06:46:01;;;;;;;;;;;;;;;;;;6281045;28;20261;-83
2023/12/27 06:49:01;;;;;;;;;;;;;;;;;;6289797;28;19938;-83
2023/12/27 06:52:01;;;;;;;;;;;;;;;;;;6282906;28;19928;-83
2023/12/27 06:55:01;;;;;;;;;;;;;;;;;;6286939;28;19999;-82
2023/12/27 06:58:01;;;;;;;;;;;;;;;;;;6287173;28;20504;-84
2023/12/27 07:01:02;;;;;;;;;;;;;;;;;;6273186;28;20031;-83
2023/12/27 07:04:02;;;;;;;;;;;;;;;;;;6274608;28;19984;-83
2023/12/27 07:07:02;;;;;;;;;;;;;;;;;;6280766;28;19920;-83
2023/12/27 07:10:04;;;;;;;;;;;;;;;;;;6284140;28;19917;-82
2023/12/27 07:13:04;;;;;;;;;;;;;;;;;;6286392;28;19940;-83
2023/12/27 07:16:05;;;;;;;;;;;;;;;;;;6275355;28;19939;-83
2023/12/27 07:19:05;;;;;;;;;;;;;;;;;;6288349;28;19941;-82
2023/12/27 07:22:06;;;;;;;;;;;;;;;;;;6278353;28;20329;-82
2023/12/27 07:25:06;;;;;;;;;;;;;;;;;;6293565;28;19916;-82
2023/12/27 07:28:06;;;;;;;;;;;;;;;;;;6296327;28;19932;-82
2023/12/27 07:31:06;;;;;;;;;;;;;;;;;;6280020;28;19921;-82
2023/12/27 07:34:06;;;;;;;;;;;;;;;;;;6287997;28;19916;-82
2023/12/27 07:37:06;;;;;;;;;;;;;;;;;;6282517;28;19966;-82
2023/12/27 07:40:07;;;;;;;;;;;;;;;;;;6282561;28;19959;-83
2023/12/27 07:43:09;;;;;;;;;;;;;;;;;;6272133;28;19921;-82
2023/12/27 07:46:09;;;;;;;;;;;;;;;;;;6284566;28;19928;-82
2023/12/27 07:49:10;;;;;;;;;;;;;;;;;;6291789;28;19914;-83
2023/12/27 07:52:10;;;;;;;;;;;;;;;;;;6284903;28;19920;-82
2023/12/27 07:55:10;;;;;;;;;;;;;;;;;;6294029;28;19955;-82
2023/12/27 07:58:11;;;;;;;;;;;;;;;;;;6274205;28;19939;-83
2023/12/27 08:01:11;;;;;;;;;;;;;;;;;;6276216;28;19927;-82
2023/12/27 08:04:11;;;;;;;;;;;;;;;;;;6285004;28;19924;-82
2023/12/27 08:07:11;;;;;;;;;;;;;;;;;;6269377;28;19916;-81
2023/12/27 08:10:11;;;;;;;;;;;;;;;;;;6301540;28;19913;-82
2023/12/27 08:13:11;;;;;;;;;;;;;;;;;;6293535;28;19913;-82
2023/12/27 08:16:12;;;;;;;;;;;;;;;;;;6297972;28;19915;-82
2023/12/27 08:19:12;;;;;;;;;;;;;;;;;;6280644;28;19912;-82
2023/12/27 08:22:12;;;;;;;;;;;;;;;;;;6288231;28;20344;-81
2023/12/27 08:25:13;;;;;;;;;;;;;;;;;;6295765;28;19960;-87
2023/12/27 08:28:14;;;;;;;;;;;;;;;;;;6276912;28;19919;-89
2023/12/27 08:31:14;;;;;;;;;;;;;;;;;;6290464;28;19999;-89
2023/12/27 08:34:14;;;;;;;;;;;;;;;;;;6287477;28;19979;-89
2023/12/27 08:37:15;;;;;;;;;;;;;;;;;;6273922;28;19958;-89
2023/12/27 08:40:16;;;;;;;;;;;;;;;;;;6291202;28;19913;-90
2023/12/27 08:43:16;;;;;;;;;;;;;;;;;;6284923;28;19943;-89
2023/12/27 08:46:17;;;;;;;;;;;;;;;;;;6272676;28;19913;-88
2023/12/27 08:49:17;;;;;;;;;;;;;;;;;;6283752;28;19912;-88
2023/12/27 08:52:17;;;;;;;;;;;;;;;;;;6277995;28;20266;-90
2023/12/27 08:55:17;;;;;;;;;;;;;;;;;;6293545;28;19935;-90
2023/12/27 08:58:18;;;;;;;;;;;;;;;;;;6292426;28;19912;-89
2023/12/27 09:01:18;;;;;;;;;;;;;;;;;;6297597;28;19920;-90
2023/12/27 09:04:20;;;;;;;;;;;;;;;;;;6284421;28;19927;-89
2023/12/27 09:07:20;;;;;;;;;;;;;;;;;;6275625;28;19917;-89
2023/12/27 09:10:20;;;;;;;;;;;;;;;;;;6275904;28;19912;-88
2023/12/27 09:13:20;;;;;;;;;;;;;;;;;;6293989;28;19912;-88
2023/12/27 09:16:21;;;;;;;;;;;;;;;;;;6283560;28;20358;-90
2023/12/27 09:19:22;;;;;;;;;;;;;;;;;;6274434;28;20008;-88
2023/12/27 09:22:22;;;;;;;;;;;;;;;;;;6290298;28;19996;-89
2023/12/27 09:25:22;;;;;;;;;;;;;;;;;;6271869;28;20022;-89
2023/12/27 09:28:25;;;;;;;;;;;;;;;;;;6278940;28;20284;-89
2023/12/27 09:31:29;;;;;;;;;;;;;;;;;;6289912;28;20272;-87
2023/12/27 09:34:30;;;;;;;;;;;;;;;;;;6266505;28;19979;-88
2023/12/27 09:37:30;;;;;;;;;;;;;;;;;;6288116;28;19921;-91
2023/12/27 09:40:31;;;;;;;;;;;;;;;;;;6286976;28;19960;-83
2023/12/27 09:43:31;;;;;;;;;;;;;;;;;;6288157;28;20361;-82
2023/12/27 09:46:31;;;;;;;;;;;;;;;;;;6287323;28;19921;-83
2023/12/27 09:49:32;;;;;;;;;;;;;;;;;;6288016;28;19999;-81
2023/12/27 09:52:33;;;;;;;;;;;;;;;;;;6284250;28;19931;-84
2023/12/27 09:55:33;;;;;;;;;;;;;;;;;;6290349;28;20003;-81
2023/12/27 09:58:33;;;;;;;;;;;;;;;;;;6274201;28;19960;-83
2023/12/27 10:01:34;;;;;;;;;;;;;;;;;;6281189;28;19920;-85
2023/12/27 10:04:34;;;;;;;;;;;;;;;;;;6294581;28;19924;-81
2023/12/27 10:07:38;;;;;;;;;;;;;;;;;;6286788;28;20287;-86
2023/12/27 10:10:39;;;;;;;;;;;;;;;;;;6280292;28;19913;-82
2023/12/27 10:13:39;;;;;;;;;;;;;;;;;;6289402;28;20160;-79
2023/12/27 10:16:39;;;;;;;;;;;;;;;;;;6285438;28;19913;-82
2023/12/27 10:19:39;;;;;;;;;;;;;;;;;;6285231;28;19967;-83
2023/12/27 10:22:39;;;;;;;;;;;;;;;;;;6265270;28;20365;-81
2023/12/27 10:25:40;;;;;;;;;;;;;;;;;;6290086;28;20008;-80
2023/12/27 10:28:40;;;;;;;;;;;;;;;;;;6284741;28;20007;-75
2023/12/27 10:31:41;;;;;;;;;;;;;;;;;;6286348;28;20055;-77
2023/12/27 10:34:41;;;;;;;;;;;;;;;;;;6274574;28;20015;-77
2023/12/27 10:37:43;;;;;;;;;;;;;;;;;;6287602;28;19928;-80
2023/12/27 10:40:44;;;;;;;;;;;;;;;;;;6280404;28;19921;-76
2023/12/27 10:43:46;;;;;;;;;;;;;;;;;;6278791;28;20025;-75
2023/12/27 10:46:46;;;;;;;;;;;;;;;;;;6278600;28;19916;-75
2023/12/27 10:49:47;;;;;;;;;;;;;;;;;;6290779;28;19931;-76
2023/12/27 10:52:49;;;;;;;;;;;;;;;;;;6285389;28;20280;-75
2023/12/27 10:55:49;;;;;;;;;;;;;;;;;;6280014;28;20375;-76
2023/12/27 10:58:51;;;;;;;;;;;;;;;;;;6284550;28;19917;-76
2023/12/27 11:01:51;;;;;;;;;;;;;;;;;;6274695;28;19931;-76
2023/12/27 11:04:52;;;;;;;;;;;;;;;;;;6268679;28;19933;-76
2023/12/27 11:07:52;;;;;;;;;;;;;;;;;;6282054;28;20365;-75
2023/12/27 11:10:52;;;;;;;;;;;;;;;;;;6276720;28;20016;-75
2023/12/27 11:13:52;;;;;;;;;;;;;;;;;;6283163;28;19923;-76
2023/12/27 11:16:53;;;;;;;;;;;;;;;;;;6281145;28;20376;-76
2023/12/27 11:19:53;;;;;;;;;;;;;;;;;;6278994;28;19916;-76
2023/12/27 11:22:53;;;;;;;;;;;;;;;;;;6284428;28;19983;-76
2023/12/27 11:25:53;;;;;;;;;;;;;;;;;;6280637;28;19920;-77
2023/12/27 11:28:53;;;;;;;;;;;;;;;;;;6282107;28;19913;-76
2023/12/27 11:31:53;;;;;;;;;;;;;;;;;;6278643;28;20258;-76
2023/12/27 11:34:53;;;;;;;;;;;;;;;;;;6278928;28;19908;-76
2023/12/27 11:37:54;;;;;;;;;;;;;;;;;;6281373;28;19919;-76
2023/12/27 11:40:54;;;;;;;;;;;;;;;;;;6282621;28;19916;-77
2023/12/27 11:43:54;;;;;;;;;;;;;;;;;;6273689;28;19924;-76
2023/12/27 11:46:54;;;;;;;;;;;;;;;;;;6280978;28;19920;-76
2023/12/27 11:49:54;;;;;;;;;;;;;;;;;;6284444;28;19938;-77
2023/12/27 11:52:54;;;;;;;;;;;;;;;;;;6287646;28;19965;-76
2023/12/27 11:55:55;;;;;;;;;;;;;;;;;;6290535;28;20319;-76
2023/12/27 11:58:55;;;;;;;;;;;;;;;;;;6278471;28;19923;-76
2023/12/27 12:01:55;;;;;;;;;;;;;;;;;;6283057;28;19924;-76
2023/12/27 12:04:55;;;;;;;;;;;;;;;;;;6288037;28;19924;-76
2023/12/27 12:07:56;;;;;;;;;;;;;;;;;;6286430;28;19927;-80
2023/12/27 12:10:56;;;;;;;;;;;;;;;;;;6281154;28;19924;-81
2023/12/27 12:13:56;;;;;;;;;;;;;;;;;;6281852;28;19913;-81
2023/12/27 12:16:56;;;;;;;;;;;;;;;;;;6278063;28;19917;-80
2023/12/27 12:19:56;;;;;;;;;;;;;;;;;;6272048;28;20340;-84
2023/12/27 12:22:56;;;;;;;;;;;;;;;;;;6273346;28;20393;-85
2023/12/27 12:25:56;;;;;;;;;;;;;;;;;;6283387;28;20325;-84
2023/12/27 12:28:58;;;;;;;;;;;;;;;;;;6274153;28;19916;-83
2023/12/27 12:31:58;;;;;;;;;;;;;;;;;;6278681;28;19916;-86
2023/12/27 12:34:58;;;;;;;;;;;;;;;;;;6277174;28;19931;-85
2023/12/27 12:38:00;;;;;;;;;;;;;;;;;;6269184;28;20286;-84
2023/12/27 12:41:00;;;;;;;;;;;;;;;;;;6281172;28;20017;-85
2023/12/27 12:44:02;;;;;;;;;;;;;;;;;;6285900;28;19924;-83
2023/12/27 12:47:02;;;;;;;;;;;;;;;;;;6282909;28;20457;-83
2023/12/27 12:50:02;;;;;;;;;;;;;;;;;;6283252;28;19921;-84
2023/12/27 12:53:03;;;;;;;;;;;;;;;;;;6289453;28;20031;-83
2023/12/27 12:56:03;;;;;;;;;;;;;;;;;;6278212;28;19920;-83
2023/12/27 12:59:03;;;;;;;;;;;;;;;;;;6289831;28;19920;-84
2023/12/27 13:02:03;;;;;;;;;;;;;;;;;;6252800;28;19920;-75
2023/12/27 13:05:03;;;;;;;;;;;;;;;;;;6278598;28;20353;-84
2023/12/27 13:08:03;;;;;;;;;;;;;;;;;;6286749;28;20316;-84
2023/12/27 13:11:04;;;;;;;;;;;;;;;;;;6285788;28;19916;-82
2023/12/27 13:14:04;;;;;;;;;;;;;;;;;;6283652;28;20333;-79
2023/12/27 13:17:04;;;;;;;;;;;;;;;;;;6279805;28;19978;-82
2023/12/27 13:20:04;;;;;;;;;;;;;;;;;;6273163;28;19931;-83
2023/12/27 13:23:05;;;;;;;;;;;;;;;;;;5934056;28;10000280;-75
2023/12/27 13:26:05;;;;;;;;;;;;;;;;;;6289860;28;19919;-77
2023/12/27 13:29:05;;;;;;;;;;;;;;;;;;6291187;28;19913;-76
2023/12/27 13:32:05;;;;;;;;;;;;;;;;;;6283063;28;19920;-74
2023/12/27 13:35:06;;;;;;;;;;;;;;;;;;6287541;28;19912;-77
2023/12/27 13:38:06;;;;;;;;;;;;;;;;;;6284558;28;19913;-78
2023/12/27 13:41:06;;;;;;;;;;;;;;;;;;6283865;28;19967;-78
2023/12/27 13:44:06;;;;;;;;;;;;;;;;;;6287826;28;19924;-78
2023/12/27 13:47:06;;;;;;;;;;;;;;;;;;6288741;28;19912;-78
2023/12/27 13:50:07;;;;;;;;;;;;;;;;;;6272003;28;20349;-78
2023/12/27 13:53:07;;;;;;;;;;;;;;;;;;6263993;28;20361;-78
2023/12/27 13:56:07;;;;;;;;;;;;;;;;;;6281375;28;19912;-78
2023/12/27 13:59:07;;;;;;;;;;;;;;;;;;6287160;28;19995;-78
2023/12/27 14:02:07;;;;;;;;;;;;;;;;;;6277155;28;20007;-78
2023/12/27 14:05:08;;;;;;;;;;;;;;;;;;5932146;28;9999860;-78
2023/12/27 14:08:10;;;;;;;;;;;;;;;;;;6293009;28;19967;-77
2023/12/27 14:11:10;;;;;;;;;;;;;;;;;;6287865;28;19921;-77
2023/12/27 14:14:10;;;;;;;;;;;;;;;;;;6275220;28;20285;-77
2023/12/27 14:17:10;;;;;;;;;;;;;;;;;;6280891;28;20300;-77
2023/12/27 14:20:12;;;;;;;;;;;;;;;;;;6278753;28;22079;-77
2023/12/27 14:23:12;;;;;;;;;;;;;;;;;;6286638;28;19970;-77
2023/12/27 14:26:13;;;;;;;;;;;;;;;;;;6290817;28;19916;-77
2023/12/27 14:29:13;;;;;;;;;;;;;;;;;;6281447;28;20356;-77
2023/12/27 14:32:13;;;;;;;;;;;;;;;;;;6283635;28;19916;-77
2023/12/27 14:35:13;;;;;;;;;;;;;;;;;;6280321;28;19960;-76
2023/12/27 14:38:13;;;;;;;;;;;;;;;;;;6284664;28;19913;-77
2023/12/27 14:41:14;;;;;;;;;;;;;;;;;;6277412;28;19917;-77
2023/12/27 14:44:15;;;;;;;;;;;;;;;;;;6284338;28;19921;-77
2023/12/27 14:47:16;;;;;;;;;;;;;;;;;;6268042;28;19966;-77
2023/12/27 14:50:16;;;;;;;;;;;;;;;;;;6275114;28;19913;-77
2023/12/27 14:53:16;;;;;;;;;;;;;;;;;;6291270;28;19913;-77
2023/12/27 14:56:16;;;;;;;;;;;;;;;;;;6269997;28;20003;-77
2023/12/27 14:59:17;;;;;;;;;;;;;;;;;;6293955;28;20007;-77
2023/12/27 15:02:17;;;;;;;;;;;;;;;;;;6282630;28;20058;-77
2023/12/27 15:05:18;;;;;;;;;;;;;;;;;;6282461;28;19979;-77
2023/12/27 15:08:18;;;;;;;;;;;;;;;;;;6296685;28;19970;-77
2023/12/27 15:11:18;;;;;;;;;;;;;;;;;;6290723;28;19963;-77
2023/12/27 15:14:18;;;;;;;;;;;;;;;;;;6280972;28;19916;-77
2023/12/27 15:17:18;;;;;;;;;;;;;;;;;;6288136;28;19913;-77
2023/12/27 15:20:20;;;;;;;;;;;;;;;;;;6293768;28;19958;-77
2023/12/27 15:23:21;;;;;;;;;;;;;;;;;;5936617;28;10000029;-78
2023/12/27 15:26:21;;;;;;;;;;;;;;;;;;6294206;28;19951;-76
2023/12/27 15:29:21;;;;;;;;;;;;;;;;;;6287002;28;19955;-77
2023/12/27 15:32:21;;;;;;;;;;;;;;;;;;6287216;28;19916;-77
2023/12/27 15:35:21;;;;;;;;;;;;;;;;;;6288730;28;19912;-76
2023/12/27 15:38:21;;;;;;;;;;;;;;;;;;6282710;28;20297;-77
2023/12/27 15:41:24;;;;;;;;;;;;;;;;;;6289080;28;19966;-76
2023/12/27 15:44:25;;;;;;;;;;;;;;;;;;6289849;28;19921;-77
2023/12/27 15:47:25;;;;;;;;;;;;;;;;;;6284552;28;19928;-77
2023/12/27 15:50:25;;;;;;;;;;;;;;;;;;6279109;28;19913;-77
2023/12/27 15:53:25;;;;;;;;;;;;;;;;;;6290305;28;20316;-77
2023/12/27 15:56:29;;;;;;;;;;;;;;;;;;6294153;28;19912;-77
2023/12/27 15:59:29;;;;;;;;;;;;;;;;;;6291102;28;19925;-76
2023/12/27 16:02:29;;;;;;;;;;;;;;;;;;6289688;28;19921;-77
2023/12/27 16:05:29;;;;;;;;;;;;;;;;;;6283158;28;19927;-77
2023/12/27 16:08:29;;;;;;;;;;;;;;;;;;6284188;28;20641;-77
2023/12/27 16:11:29;;;;;;;;;;;;;;;;;;6284622;28;19912;-77
2023/12/27 16:14:29;;;;;;;;;;;;;;;;;;6289755;28;19912;-77
2023/12/27 16:17:30;;;;;;;;;;;;;;;;;;6288015;28;19913;-76
2023/12/27 16:20:30;;;;;;;;;;;;;;;;;;6285630;28;20000;-76
2023/12/27 16:23:30;;;;;;;;;;;;;;;;;;6278899;28;19921;-77
2023/12/27 16:26:30;;;;;;;;;;;;;;;;;;6287020;28;20276;-77
2023/12/27 16:29:31;;;;;;;;;;;;;;;;;;6286477;28;19917;-77
2023/12/27 16:32:31;;;;;;;;;;;;;;;;;;6290172;28;19916;-76
2023/12/27 16:35:31;;;;;;;;;;;;;;;;;;6287761;28;20003;-77
2023/12/27 16:38:31;;;;;;;;;;;;;;;;;;6282624;28;19995;-77
2023/12/27 16:41:34;;;;;;;;;;;;;;;;;;6295026;28;20372;-77
2023/12/27 16:44:34;;;;;;;;;;;;;;;;;;6280730;28;19920;-77
2023/12/27 16:47:34;;;;;;;;;;;;;;;;;;6288512;28;19920;-77
2023/12/27 16:50:34;;;;;;;;;;;;;;;;;;6295447;28;19913;-77
2023/12/27 16:53:34;;;;;;;;;;;;;;;;;;6287304;28;19919;-77
2023/12/27 16:56:35;;;;;;;;;;;;;;;;;;6291726;28;19913;-76
2023/12/27 16:59:35;;;;;;;;;;;;;;;;;;6286445;28;19916;-77
2023/12/27 17:02:35;;;;;;;;;;;;;;;;;;6293065;28;19974;-76
2023/12/27 17:05:35;;;;;;;;;;;;;;;;;;6281720;28;19928;-77
2023/12/27 17:08:35;;;;;;;;;;;;;;;;;;6285711;28;19935;-77
2023/12/27 17:11:37;;;;;;;;;;;;;;;;;;6285451;28;19920;-76
2023/12/27 17:14:37;;;;;;;;;;;;;;;;;;6281027;28;19913;-77
2023/12/27 17:17:37;;;;;;;;;;;;;;;;;;6290902;28;19913;-77
2023/12/27 17:20:37;;;;;;;;;;;;;;;;;;6279190;28;20064;-77
2023/12/27 17:23:37;;;;;;;;;;;;;;;;;;6288110;28;19917;-77
2023/12/27 17:26:37;;;;;;;;;;;;;;;;;;6270126;28;19916;-77
2023/12/27 17:29:38;;;;;;;;;;;;;;;;;;6287018;28;20464;-77
2023/12/27 17:32:39;;;;;;;;;;;;;;;;;;6289508;28;19912;-77
2023/12/27 17:35:39;;;;;;;;;;;;;;;;;;6287053;28;19920;-77
2023/12/27 17:38:39;;;;;;;;;;;;;;;;;;6296426;28;19951;-77
2023/12/27 17:41:39;;;;;;;;;;;;;;;;;;6293091;28;19913;-77
2023/12/27 17:44:40;;;;;;;;;;;;;;;;;;6284542;28;19921;-77
2023/12/27 17:47:40;;;;;;;;;;;;;;;;;;6282853;28;19980;-77
2023/12/27 17:50:43;;;;;;;;;;;;;;;;;;6275314;28;19912;-77
2023/12/27 17:53:43;;;;;;;;;;;;;;;;;;6275781;28;19952;-76
2023/12/27 17:56:43;;;;;;;;;;;;;;;;;;6270989;28;19917;-77
2023/12/27 17:59:44;;;;;;;;;;;;;;;;;;6272645;28;19921;-77
2023/12/27 18:02:44;;;;;;;;;;;;;;;;;;6270715;28;19921;-77
2023/12/27 18:05:45;;;;;;;;;;;;;;;;;;6286267;28;20361;-77
2023/12/27 18:08:46;;;;;;;;;;;;;;;;;;6284895;28;20378;-77
2023/12/27 18:11:46;;;;;;;;;;;;;;;;;;6270915;28;19913;-77
2023/12/27 18:14:49;;;;;;;;;;;;;;;;;;6269850;28;19920;-77
2023/12/27 18:17:49;;;;;;;;;;;;;;;;;;6268914;28;19921;-77
2023/12/27 18:20:49;;;;;;;;;;;;;;;;;;6270059;28;20007;-76
2023/12/27 18:23:50;;;;;;;;;;;;;;;;;;6273463;28;19932;-76
2023/12/27 18:26:50;;;;;;;;;;;;;;;;;;6271803;28;19929;-76
2023/12/27 18:29:50;;;;;;;;;;;;;;;;;;6268540;28;19917;-76
2023/12/27 18:32:51;;;;;;;;;;;;;;;;;;6275017;28;19920;-77
2023/12/27 18:35:57;;;;;;;;;;;;;;;;;;6269752;28;21504;-76
2023/12/27 18:38:57;;;;;;;;;;;;;;;;;;6271001;28;19920;-75
2023/12/27 18:41:57;;;;;;;;;;;;;;;;;;6277241;28;19920;-76
2023/12/27 18:44:57;;;;;;;;;;;;;;;;;;6266436;28;19939;-77
2023/12/27 18:47:57;;;;;;;;;;;;;;;;;;6268426;28;19920;-76
2023/12/27 18:50:57;;;;;;;;;;;;;;;;;;6274080;28;19974;-77
2023/12/27 18:53:57;;;;;;;;;;;;;;;;;;6272652;28;20006;-76
2023/12/27 18:56:58;;;;;;;;;;;;;;;;;;6280916;28;19916;-76
2023/12/27 18:59:58;;;;;;;;;;;;;;;;;;6271640;28;19919;-76
2023/12/27 19:02:58;;;;;;;;;;;;;;;;;;6269507;28;19921;-77
2023/12/27 19:05:58;;;;;;;;;;;;;;;;;;6269426;28;19920;-76
2023/12/27 19:08:59;;;;;;;;;;;;;;;;;;6271159;28;19928;-76
2023/12/27 19:11:59;;;;;;;;;;;;;;;;;;6271813;28;19921;-76
2023/12/27 19:14:59;;;;;;;;;;;;;;;;;;6277454;28;19963;-76
2023/12/27 19:17:59;;;;;;;;;;;;;;;;;;6292050;28;19942;-76
2023/12/27 19:20:59;;;;;;;;;;;;;;;;;;6295015;28;19912;-76
2023/12/27 19:23:59;;;;;;;;;;;;;;;;;;6280525;28;19928;-76
2023/12/27 19:26:59;;;;;;;;;;;;;;;;;;6274125;28;19913;-76
2023/12/27 19:30:00;;;;;;;;;;;;;;;;;;6271078;28;19967;-75
2023/12/27 19:33:00;;;;;;;;;;;;;;;;;;6266996;28;19939;-77
2023/12/27 19:36:00;;;;;;;;;;;;;;;;;;6267979;28;20248;-76
2023/12/27 19:39:00;;;;;;;;;;;;;;;;;;6269309;28;20311;-80
2023/12/27 19:42:00;;;;;;;;;;;;;;;;;;6283062;28;20300;-75
2023/12/27 19:45:01;;;;;;;;;;;;;;;;;;6275723;28;19928;-77
2023/12/27 19:48:01;;;;;;;;;;;;;;;;;;6275854;28;19916;-76
2023/12/27 19:51:01;;;;;;;;;;;;;;;;;;6278553;28;20375;-77
2023/12/27 19:54:02;;;;;;;;;;;;;;;;;;6290915;28;19916;-76
2023/12/27 19:57:02;;;;;;;;;;;;;;;;;;6295441;28;20003;-77
2023/12/27 20:00:02;;;;;;;;;;;;;;;;;;6280583;28;19976;-76
2023/12/27 20:03:04;;;;;;;;;;;;;;;;;;6280656;28;20363;-77
2023/12/27 20:06:04;;;;;;;;;;;;;;;;;;6277722;28;19966;-76
2023/12/27 20:09:04;;;;;;;;;;;;;;;;;;6280441;28;20023;-77
2023/12/27 20:12:04;;;;;;;;;;;;;;;;;;6275504;28;19971;-77
2023/12/27 20:15:04;;;;;;;;;;;;;;;;;;6274463;28;19920;-77
2023/12/27 20:18:06;;;;;;;;;;;;;;;;;;6280459;28;19912;-76
2023/12/27 20:21:06;;;;;;;;;;;;;;;;;;6276959;28;19913;-77
2023/12/27 20:24:06;;;;;;;;;;;;;;;;;;6278323;28;19935;-77
2023/12/27 20:27:06;;;;;;;;;;;;;;;;;;6280574;28;19947;-76
2023/12/27 20:30:06;;;;;;;;;;;;;;;;;;6282671;28;20010;-77